Time;durP1;ratioP1;P1;durP2;ratioP2;P2;SDS_P1;SDS_P2;PMS_P1;PMS_P2;Temp;Humidity;BMP_temperature;BMP_pressure;BME280_temperature;BME280_humidity;BME280_pressure;Samples;Min_cycle;Max_cycle;Signal;HPM_P1;HPM_P2
2022/10/25 04:48:56;;;;;;;0.45;0.30;;;;;;;;;;6017985;22;20113;-86
2022/10/25 04:51:24;;;;;;;0.20;0.20;;;;;;;;;;5065501;28;22720;-88
2022/10/25 04:53:53;;;;;;;0.20;0.20;;;;;;;;;;5068612;28;20052;-91
2022/10/25 04:56:22;;;;;;;0.10;0.10;;;;;;;;;;5062342;28;20095;-90
2022/10/25 04:58:50;;;;;;;0.13;0.13;;;;;;;;;;5066857;28;20066;-88
2022/10/25 05:01:19;;;;;;;0.15;0.10;;;;;;;;;;5053624;28;20053;-88
2022/10/25 05:03:49;;;;;;;0.10;0.10;;;;;;;;;;5043884;28;20056;-88
2022/10/25 05:06:21;;;;;;;0.55;0.20;;;;;;;;;;5047932;28;20041;-89
2022/10/25 05:08:50;;;;;;;0.10;0.10;;;;;;;;;;5040946;28;20584;-86
2022/10/25 05:11:19;;;;;;;0.47;0.20;;;;;;;;;;5036025;28;20092;-88
2022/10/25 05:13:48;;;;;;;3.40;0.80;;;;;;;;;;5040609;28;20139;-87
2022/10/25 05:16:20;;;;;;;0.10;0.10;;;;;;;;;;5035346;28;20041;-87
2022/10/25 05:18:49;;;;;;;0.45;0.20;;;;;;;;;;5033267;28;20048;-92
2022/10/25 05:21:18;;;;;;;0.13;0.13;;;;;;;;;;5044606;28;20049;-86
2022/10/25 05:23:47;;;;;;;0.45;0.45;;;;;;;;;;5046545;28;20060;-88
2022/10/25 05:26:17;;;;;;;1.30;0.17;;;;;;;;;;5037195;28;20328;-88
2022/10/25 05:28:46;;;;;;;0.25;0.20;;;;;;;;;;5057911;28;20564;-87
2022/10/25 05:31:15;;;;;;;3.50;0.40;;;;;;;;;;5063539;28;20867;-85
2022/10/25 05:33:44;;;;;;;0.17;0.10;;;;;;;;;;5065650;28;20048;-85
2022/10/25 05:36:12;;;;;;;0.73;0.30;;;;;;;;;;5056207;28;20048;-86
2022/10/25 05:38:41;;;;;;;0.65;0.35;;;;;;;;;;5066385;28;20127;-87
2022/10/25 05:41:12;;;;;;;0.20;0.20;;;;;;;;;;5063620;28;20056;-87
2022/10/25 05:43:40;;;;;;;0.20;0.17;;;;;;;;;;5066393;28;20051;-88
2022/10/25 05:46:11;;;;;;;0.20;0.20;;;;;;;;;;5070136;28;20059;-87
2022/10/25 05:48:39;;;;;;;0.13;0.13;;;;;;;;;;5060664;28;20076;-86
2022/10/25 05:51:16;;;;;;;0.32;0.20;;;;;;;;;;5070061;28;20132;-87
2022/10/25 05:54:06;;;;;;;0.40;0.20;;;;;;;;;;5069100;28;20049;-86
2022/10/25 05:56:37;;;;;;;0.10;0.10;;;;;;;;;;5072262;28;20498;-87
2022/10/25 05:59:07;;;;;;;0.68;0.25;;;;;;;;;;5079498;28;20052;-87
2022/10/25 06:01:37;;;;;;;0.17;0.17;;;;;;;;;;5061364;28;20080;-86
2022/10/25 06:04:06;;;;;;;0.30;0.20;;;;;;;;;;5072976;28;20044;-86
2022/10/25 06:06:35;;;;;;;0.20;0.20;;;;;;;;;;5068850;28;20114;-83
2022/10/25 06:09:04;;;;;;;0.30;0.30;;;;;;;;;;5067312;28;20467;-83
2022/10/25 06:11:33;;;;;;;0.10;0.10;;;;;;;;;;5070233;28;20063;-85
2022/10/25 06:14:03;;;;;;;0.20;0.20;;;;;;;;;;5070287;28;20469;-84
2022/10/25 06:16:32;;;;;;;0.10;0.10;;;;;;;;;;5073106;28;20094;-84
2022/10/25 06:19:01;;;;;;;0.57;0.30;;;;;;;;;;5063921;28;20041;-85
2022/10/25 06:21:30;;;;;;;0.10;0.10;;;;;;;;;;5066783;28;20052;-84
2022/10/25 06:23:59;;;;;;;0.50;0.40;;;;;;;;;;5060074;28;20045;-86
2022/10/25 06:26:29;;;;;;;0.10;0.10;;;;;;;;;;5050607;28;20049;-85
2022/10/25 06:28:59;;;;;;;0.10;0.10;;;;;;;;;;5066721;28;20572;-87
2022/10/25 06:31:29;;;;;;;0.85;0.30;;;;;;;;;;5054839;28;20082;-85
2022/10/25 06:33:59;;;;;;;0.10;0.10;;;;;;;;;;5063389;28;20515;-85
2022/10/25 06:36:30;;;;;;;0.20;0.20;;;;;;;;;;5053094;28;20053;-86
2022/10/25 06:38:59;;;;;;;0.50;0.50;;;;;;;;;;5056355;28;20047;-89
2022/10/25 06:41:35;;;;;;;;;;;;;;;;;;5076687;28;20460;-87
2022/10/25 06:44:04;;;;;;;0.22;0.22;;;;;;;;;;5065907;28;19921;-86
2022/10/25 06:46:36;;;;;;;6.88;0.45;;;;;;;;;;5071670;28;20048;-88
2022/10/25 06:49:25;;;;;;;0.40;0.40;;;;;;;;;;5072382;28;20059;-88
2022/10/25 06:51:53;;;;;;;0.17;0.17;;;;;;;;;;5049686;28;20041;-88
2022/10/25 06:54:24;;;;;;;0.30;0.30;;;;;;;;;;5058738;28;20072;-88
2022/10/25 06:56:52;;;;;;;1.25;0.63;;;;;;;;;;5055923;28;20099;-88
2022/10/25 06:59:20;;;;;;;0.55;0.30;;;;;;;;;;5058212;28;20055;-89
2022/10/25 07:01:51;;;;;;;0.40;0.40;;;;;;;;;;5055749;28;20053;-88
2022/10/25 07:04:19;;;;;;;0.70;0.20;;;;;;;;;;5062837;28;20049;-88
2022/10/25 07:06:48;;;;;;;0.43;0.40;;;;;;;;;;5046030;28;20132;-88
2022/10/25 07:09:21;;;;;;;1.38;0.60;;;;;;;;;;5056578;28;20052;-88
2022/10/25 07:11:50;;;;;;;0.35;0.32;;;;;;;;;;5055824;28;20048;-87
2022/10/25 07:14:18;;;;;;;0.30;0.30;;;;;;;;;;5054833;28;20046;-89
2022/10/25 07:16:47;;;;;;;0.85;0.38;;;;;;;;;;5052313;28;20132;-86
2022/10/25 07:19:16;;;;;;;1.27;0.80;;;;;;;;;;5036849;28;20041;-87
2022/10/25 07:21:45;;;;;;;1.38;0.90;;;;;;;;;;5069836;28;20518;-86
2022/10/25 07:24:13;;;;;;;0.22;0.22;;;;;;;;;;5063668;28;20111;-86
2022/10/25 07:26:42;;;;;;;0.10;0.10;;;;;;;;;;5066356;28;20052;-85
2022/10/25 07:29:10;;;;;;;0.90;0.43;;;;;;;;;;5067499;28;20052;-86
2022/10/25 07:31:40;;;;;;;0.13;0.13;;;;;;;;;;5054254;28;20480;-87
2022/10/25 07:34:12;;;;;;;0.10;0.10;;;;;;;;;;5059501;28;20408;-87
2022/10/25 07:36:41;;;;;;;0.13;0.13;;;;;;;;;;5053625;28;20106;-87
2022/10/25 07:39:10;;;;;;;0.85;0.28;;;;;;;;;;5066797;28;20045;-88
2022/10/25 07:41:39;;;;;;;0.22;0.20;;;;;;;;;;5068543;28;20056;-88
2022/10/25 07:44:08;;;;;;;1.45;0.50;;;;;;;;;;5073829;28;20061;-91
2022/10/25 07:46:44;;;;;;;1.80;0.70;;;;;;;;;;5056889;28;20197;-87
2022/10/25 07:49:12;;;;;;;3.03;0.20;;;;;;;;;;5050802;28;20060;-86
2022/10/25 07:51:42;;;;;;;0.05;0.05;;;;;;;;;;5050418;28;20059;-85
2022/10/25 07:54:10;;;;;;;0.90;0.45;;;;;;;;;;5040235;28;20051;-87
2022/10/25 07:56:39;;;;;;;1.85;0.57;;;;;;;;;;5066939;28;20044;-88
2022/10/25 07:59:07;;;;;;;0.40;0.20;;;;;;;;;;5059274;28;20055;-89
2022/10/25 08:01:36;;;;;;;0.28;0.20;;;;;;;;;;5060123;28;20529;-88
2022/10/25 08:04:04;;;;;;;0.10;0.10;;;;;;;;;;5054494;28;20116;-88
2022/10/25 08:06:34;;;;;;;0.22;0.22;;;;;;;;;;5039842;28;20042;-88
2022/10/25 08:09:04;;;;;;;0.08;0.08;;;;;;;;;;5079471;23;20076;-88
2022/10/25 08:11:53;;;;;;;0.08;0.08;;;;;;;;;;5051534;28;20060;-88
2022/10/25 08:14:21;;;;;;;0.20;0.15;;;;;;;;;;5052052;28;20511;-88
2022/10/25 08:16:55;;;;;;;0.20;0.20;;;;;;;;;;5034984;28;20045;-87
2022/10/25 08:19:24;;;;;;;2.33;0.22;;;;;;;;;;5048214;28;20064;-88
2022/10/25 08:21:54;;;;;;;0.35;0.35;;;;;;;;;;5053129;28;20056;-87
2022/10/25 08:24:24;;;;;;;0.13;0.10;;;;;;;;;;5051147;28;20052;-89
2022/10/25 08:26:53;;;;;;;0.20;0.20;;;;;;;;;;5052385;28;20485;-88
2022/10/25 08:29:22;;;;;;;0.82;0.32;;;;;;;;;;5054527;28;20045;-89
2022/10/25 08:31:50;;;;;;;1.38;0.38;;;;;;;;;;5054509;28;20128;-88
2022/10/25 08:34:19;;;;;;;0.60;0.30;;;;;;;;;;5054287;28;20124;-88
2022/10/25 08:36:49;;;;;;;1.70;1.02;;;;;;;;;;5051936;28;20397;-87
2022/10/25 08:39:17;;;;;;;2.47;0.22;;;;;;;;;;5054109;28;20048;-86
2022/10/25 08:44:45;;;;;;;3.83;0.55;;;;;;;;;;5054291;28;20051;-86
2022/10/25 08:47:25;;;;;;;0.65;0.20;;;;;;;;;;5054034;28;20064;-86
2022/10/25 08:49:56;;;;;;;2.47;0.85;;;;;;;;;;5053890;28;20080;-85
2022/10/25 08:52:28;;;;;;;0.10;0.10;;;;;;;;;;5051800;28;20044;-89
2022/10/25 08:54:58;;;;;;;0.47;0.25;;;;;;;;;;5053044;28;20405;-85
2022/10/25 08:57:34;;;;;;;1.40;0.68;;;;;;;;;;5051523;28;20080;-85
2022/10/25 09:00:09;;;;;;;0.73;0.20;;;;;;;;;;5052071;28;20045;-86
2022/10/25 09:02:40;;;;;;;1.33;0.30;;;;;;;;;;5043352;28;20156;-87
2022/10/25 09:05:14;;;;;;;0.35;0.10;;;;;;;;;;5050236;28;20045;-86
2022/10/25 09:07:49;;;;;;;0.38;0.35;;;;;;;;;;5049924;28;20115;-86
2022/10/25 09:10:22;;;;;;;1.02;0.40;;;;;;;;;;5272519;23;20151;-84
2022/10/25 09:12:56;;;;;;;1.77;0.22;;;;;;;;;;5089375;28;20044;-87
2022/10/25 09:15:32;;;;;;;0.30;0.30;;;;;;;;;;5091976;28;20543;-91
2022/10/25 09:18:04;;;;;;;0.75;0.30;;;;;;;;;;5088272;28;20047;-86
2022/10/25 09:20:34;;;;;;;2.28;0.20;;;;;;;;;;5085593;28;20044;-86
2022/10/25 09:23:06;;;;;;;0.95;0.20;;;;;;;;;;5086317;28;20050;-86
2022/10/25 09:25:40;;;;;;;0.35;0.30;;;;;;;;;;5085508;28;20051;-86
2022/10/25 09:28:12;;;;;;;0.10;0.10;;;;;;;;;;5082735;28;20461;-87
2022/10/25 09:30:43;;;;;;;0.13;0.10;;;;;;;;;;5073810;28;20088;-87
2022/10/25 09:33:12;;;;;;;0.95;0.60;;;;;;;;;;5083280;28;20053;-86
2022/10/25 09:35:42;;;;;;;1.00;0.10;;;;;;;;;;5086437;28;20048;-86
2022/10/25 09:38:12;;;;;;;0.10;0.08;;;;;;;;;;5091666;28;20419;-88
2022/10/25 09:40:45;;;;;;;2.38;0.28;;;;;;;;;;5089718;28;20056;-86
2022/10/25 09:43:18;;;;;;;0.77;0.20;;;;;;;;;;5079949;28;20485;-89
2022/10/25 09:45:49;;;;;;;0.85;0.50;;;;;;;;;;5092432;28;20048;-90
2022/10/25 09:48:21;;;;;;;0.10;0.10;;;;;;;;;;5093664;28;20044;-87
2022/10/25 09:50:51;;;;;;;1.35;0.22;;;;;;;;;;5092879;28;20048;-91
2022/10/25 09:53:20;;;;;;;0.65;0.20;;;;;;;;;;5093402;28;20040;-88
2022/10/25 09:55:56;;;;;;;1.70;0.52;;;;;;;;;;5104212;28;20056;-86
2022/10/25 09:58:29;;;;;;;0.30;0.17;;;;;;;;;;5103621;28;20055;-87
2022/10/25 10:00:59;;;;;;;0.20;0.20;;;;;;;;;;5099843;28;20040;-89
2022/10/25 10:03:28;;;;;;;0.15;0.15;;;;;;;;;;5100736;28;20044;-90
2022/10/25 10:05:58;;;;;;;0.17;0.17;;;;;;;;;;5093842;28;20429;-87
2022/10/25 10:11:16;;;;;;;1.80;0.60;;;;;;;;;;5103879;23;20050;-87
2022/10/25 10:13:48;;;;;;;0.10;0.00;;;;;;;;;;5098890;28;20476;-86
2022/10/25 10:16:20;;;;;;;0.10;0.10;;;;;;;;;;5085428;28;20050;-85
2022/10/25 10:18:48;;;;;;;0.47;0.10;;;;;;;;;;5086051;28;20055;-87
2022/10/25 10:21:18;;;;;;;0.22;0.22;;;;;;;;;;5096147;28;20048;-87
2022/10/25 10:23:52;;;;;;;2.00;0.10;;;;;;;;;;5095629;28;20044;-86
2022/10/25 10:26:22;;;;;;;0.22;0.20;;;;;;;;;;5078002;28;20052;-86
2022/10/25 10:28:53;;;;;;;0.20;0.10;;;;;;;;;;5081264;28;20518;-86
2022/10/25 10:31:21;;;;;;;2.25;0.20;;;;;;;;;;5089524;28;20051;-85
2022/10/25 10:33:50;;;;;;;0.75;0.20;;;;;;;;;;5096122;28;20051;-86
2022/10/25 10:36:23;;;;;;;0.10;0.10;;;;;;;;;;5088392;28;20050;-88
2022/10/25 10:38:51;;;;;;;0.10;0.10;;;;;;;;;;5091674;28;20040;-89
2022/10/25 10:41:24;;;;;;;4.80;0.30;;;;;;;;;;5090336;28;20118;-85
2022/10/25 10:44:08;;;;;;;0.20;0.20;;;;;;;;;;5088327;28;20043;-85
2022/10/25 10:46:36;;;;;;;0.40;0.10;;;;;;;;;;5087071;28;20041;-87
2022/10/25 10:49:04;;;;;;;0.35;0.25;;;;;;;;;;5090248;28;20048;-85
2022/10/25 10:51:38;;;;;;;0.38;0.20;;;;;;;;;;5092319;28;20044;-86
2022/10/25 10:54:23;;;;;;;0.25;0.13;;;;;;;;;;5092860;28;20047;-86
2022/10/25 10:56:56;;;;;;;0.00;0.00;;;;;;;;;;5095292;28;20127;-84
2022/10/25 10:59:28;;;;;;;0.25;0.20;;;;;;;;;;5095089;28;20044;-87
2022/10/25 11:01:57;;;;;;;0.15;0.15;;;;;;;;;;5091516;28;20041;-87
2022/10/25 11:04:26;;;;;;;0.25;0.25;;;;;;;;;;5089931;28;20143;-87
2022/10/25 11:07:13;;;;;;;0.10;0.03;;;;;;;;;;5087354;28;20052;-87
2022/10/25 11:09:41;;;;;;;0.10;0.10;;;;;;;;;;5079527;28;20063;-87
2022/10/25 11:12:13;;;;;;;0.30;0.30;;;;;;;;;;5091341;28;20044;-87
2022/10/25 11:14:46;;;;;;;0.22;0.20;;;;;;;;;;5080670;28;20434;-87
2022/10/25 11:17:16;;;;;;;2.40;0.20;;;;;;;;;;5088655;28;20141;-87
2022/10/25 11:19:53;;;;;;;5.07;1.35;;;;;;;;;;5093533;28;20466;-87
2022/10/25 11:22:29;;;;;;;0.70;0.20;;;;;;;;;;5093938;28;20515;-87
2022/10/25 11:25:16;;;;;;;0.10;0.10;;;;;;;;;;5097316;28;20044;-86
2022/10/25 11:27:48;;;;;;;0.15;0.15;;;;;;;;;;5086195;28;20044;-89
2022/10/25 11:30:22;;;;;;;0.10;0.10;;;;;;;;;;5084857;28;20403;-87
2022/10/25 11:33:05;;;;;;;0.30;0.10;;;;;;;;;;5083678;28;20068;-86
2022/10/25 11:35:41;;;;;;;0.10;0.10;;;;;;;;;;5080221;28;20472;-85
2022/10/25 11:38:14;;;;;;;0.10;0.10;;;;;;;;;;5086429;28;20155;-90
2022/10/25 11:40:46;;;;;;;0.75;0.30;;;;;;;;;;5085302;28;20051;-87
2022/10/25 11:43:27;;;;;;;0.40;0.20;;;;;;;;;;5075959;28;20165;-87
2022/10/25 11:45:59;;;;;;;0.05;0.05;;;;;;;;;;5089793;28;20048;-87
2022/10/25 11:48:34;;;;;;;0.30;0.17;;;;;;;;;;5079548;28;20048;-87
2022/10/25 11:51:07;;;;;;;0.47;0.20;;;;;;;;;;5084903;28;20049;-87
2022/10/25 11:53:52;;;;;;;0.15;0.15;;;;;;;;;;5088331;28;20076;-86
2022/10/25 11:56:24;;;;;;;1.88;0.50;;;;;;;;;;5092688;28;20051;-87
2022/10/25 11:58:58;;;;;;;2.67;0.28;;;;;;;;;;5089944;28;20552;-90
2022/10/25 12:01:35;;;;;;;0.85;0.20;;;;;;;;;;5087232;28;20048;-89
2022/10/25 12:04:15;;;;;;;2.67;0.17;;;;;;;;;;5079539;28;20140;-87
2022/10/25 12:06:46;;;;;;;0.15;0.15;;;;;;;;;;5076227;28;20104;-91
2022/10/25 12:09:21;;;;;;;0.80;0.32;;;;;;;;;;5083182;28;20051;-88
2022/10/25 12:11:52;;;;;;;0.17;0.17;;;;;;;;;;5081643;28;20367;-89
2022/10/25 12:14:24;;;;;;;0.35;0.22;;;;;;;;;;5080876;28;20044;-86
2022/10/25 12:16:55;;;;;;;0.93;0.60;;;;;;;;;;5086437;28;20407;-86
2022/10/25 12:19:26;;;;;;;6.13;0.30;;;;;;;;;;5082718;28;20056;-89
2022/10/25 12:21:57;;;;;;;0.38;0.13;;;;;;;;;;5087546;28;20106;-88
2022/10/25 12:24:32;;;;;;;0.10;0.10;;;;;;;;;;5087861;28;20067;-90
2022/10/25 12:27:01;;;;;;;1.10;0.28;;;;;;;;;;5078880;28;20093;-89
2022/10/25 12:29:34;;;;;;;0.88;0.30;;;;;;;;;;5085469;28;20052;-89
2022/10/25 12:32:10;;;;;;;0.55;0.20;;;;;;;;;;5085209;28;20051;-91
2022/10/25 12:34:41;;;;;;;0.25;0.20;;;;;;;;;;5085812;28;20052;-88
2022/10/25 12:37:14;;;;;;;0.00;0.00;;;;;;;;;;5083061;28;20045;-88
2022/10/25 12:39:43;;;;;;;0.10;0.10;;;;;;;;;;5084006;28;20553;-85
2022/10/25 12:42:15;;;;;;;0.13;0.10;;;;;;;;;;5081118;28;20046;-88
2022/10/25 12:44:53;;;;;;;0.28;0.20;;;;;;;;;;5088972;28;20147;-89
2022/10/25 12:47:29;;;;;;;0.00;0.00;;;;;;;;;;5084831;28;20052;-86
2022/10/25 12:50:03;;;;;;;0.32;0.20;;;;;;;;;;5077238;28;20052;-86
2022/10/25 12:52:34;;;;;;;0.10;0.10;;;;;;;;;;5086151;28;20052;-86
2022/10/25 12:55:09;;;;;;;0.20;0.20;;;;;;;;;;5077460;28;20079;-86
2022/10/25 12:57:43;;;;;;;0.60;0.25;;;;;;;;;;5085058;28;20117;-86
2022/10/25 13:00:16;;;;;;;0.10;0.10;;;;;;;;;;5083332;28;20166;-87
2022/10/25 13:02:55;;;;;;;0.28;0.22;;;;;;;;;;5081045;28;20056;-87
2022/10/25 13:05:31;;;;;;;10.50;0.88;;;;;;;;;;5081583;28;20044;-88
2022/10/25 13:08:01;;;;;;;0.10;0.10;;;;;;;;;;5085263;28;20076;-89
2022/10/25 13:10:32;;;;;;;2.55;0.20;;;;;;;;;;5079188;28;20071;-90
2022/10/25 13:13:02;;;;;;;0.30;0.20;;;;;;;;;;5082514;28;20045;-87
2022/10/25 13:15:39;;;;;;;0.08;0.08;;;;;;;;;;5084933;28;20044;-87
2022/10/25 13:18:25;;;;;;;0.30;0.30;;;;;;;;;;5075183;28;20047;-87
2022/10/25 13:20:54;;;;;;;1.38;0.10;;;;;;;;;;5078939;28;20045;-86
2022/10/25 13:23:41;;;;;;;0.00;0.00;;;;;;;;;;5076505;28;20386;-87
2022/10/25 13:26:10;;;;;;;1.20;0.28;;;;;;;;;;5081237;28;20055;-88
2022/10/25 13:28:44;;;;;;;0.00;0.00;;;;;;;;;;5084506;28;20464;-86
2022/10/25 13:31:28;;;;;;;1.10;0.50;;;;;;;;;;5088048;28;20060;-87
2022/10/25 13:34:12;;;;;;;1.85;0.10;;;;;;;;;;5082788;28;20189;-87
2022/10/25 13:36:50;;;;;;;0.10;0.10;;;;;;;;;;5092896;28;20048;-85
2022/10/25 13:39:23;;;;;;;2.55;0.15;;;;;;;;;;5078829;28;20055;-87
2022/10/25 13:41:52;;;;;;;0.75;0.25;;;;;;;;;;5089839;28;20526;-87
2022/10/25 13:44:21;;;;;;;0.03;0.03;;;;;;;;;;5080196;28;20504;-87
2022/10/25 13:46:54;;;;;;;0.00;0.00;;;;;;;;;;5085527;28;20127;-86
2022/10/25 13:49:31;;;;;;;1.45;0.10;;;;;;;;;;5086282;28;20135;-87
2022/10/25 13:52:03;;;;;;;0.10;0.10;;;;;;;;;;5075960;28;20102;-88
2022/10/25 13:54:37;;;;;;;0.03;0.03;;;;;;;;;;5095375;28;20052;-86
2022/10/25 13:57:05;;;;;;;0.10;0.08;;;;;;;;;;5077312;28;20132;-86
2022/10/25 13:59:35;;;;;;;0.03;0.03;;;;;;;;;;5087017;28;20504;-86
2022/10/25 14:02:16;;;;;;;0.50;0.20;;;;;;;;;;5088457;28;20055;-86
2022/10/25 14:04:46;;;;;;;0.00;0.00;;;;;;;;;;5087906;28;20097;-87
2022/10/25 14:07:33;;;;;;;0.10;0.10;;;;;;;;;;5092516;28;20052;-85
2022/10/25 14:10:03;;;;;;;0.25;0.10;;;;;;;;;;5092956;28;20132;-87
2022/10/25 14:12:32;;;;;;;0.25;0.20;;;;;;;;;;5088101;28;20056;-84
2022/10/25 14:15:15;;;;;;;0.00;0.00;;;;;;;;;;5088911;28;20480;-87
2022/10/25 14:17:45;;;;;;;0.52;0.25;;;;;;;;;;5080750;28;20045;-87
2022/10/25 14:20:21;;;;;;;0.22;0.22;;;;;;;;;;5097013;28;20093;-86
2022/10/25 14:22:52;;;;;;;0.00;0.00;;;;;;;;;;5083065;28;20048;-86
2022/10/25 14:25:24;;;;;;;0.10;0.10;;;;;;;;;;5083300;28;20055;-88
2022/10/25 14:28:04;;;;;;;0.22;0.13;;;;;;;;;;5087289;28;20044;-94
2022/10/25 14:30:35;;;;;;;0.10;0.10;;;;;;;;;;5091615;28;20078;-90
2022/10/25 14:33:06;;;;;;;0.20;0.10;;;;;;;;;;5101406;28;20664;-95
2022/10/25 14:38:19;;;;;;;0.20;0.20;;;;;;;;;;5086719;28;20136;-89
2022/10/25 14:40:53;;;;;;;0.10;0.10;;;;;;;;;;5087219;28;20050;-89
2022/10/25 14:43:22;;;;;;;0.70;0.25;;;;;;;;;;5101899;28;20047;-89
2022/10/25 14:46:04;;;;;;;0.05;0.03;;;;;;;;;;5099774;28;20127;-93
2022/10/25 14:51:40;;;;;;;0.95;0.55;;;;;;;;;;5067619;28;20045;-96
2022/10/25 14:54:35;;;;;;;0.73;0.10;;;;;;;;;;5062899;28;20061;-96
2022/10/25 14:57:13;;;;;;;0.32;0.10;;;;;;;;;;5048473;28;20124;-96
2022/10/25 15:00:00;;;;;;;0.47;0.20;;;;;;;;;;5049788;28;20063;-97
2022/10/25 15:16:00;;;;;;;0.52;0.32;;;;;;;;;;5028872;28;20105;-96
2022/10/25 15:21:39;;;;;;;0.05;0.05;;;;;;;;;;5039440;28;20046;-96
2022/10/25 15:24:09;;;;;;;0.30;0.17;;;;;;;;;;5054050;28;20191;-95
2022/10/25 15:29:48;;;;;;;3.20;0.15;;;;;;;;;;5054674;28;20055;-96
2022/10/25 15:32:18;;;;;;;0.03;0.03;;;;;;;;;;5095989;28;20046;-92
2022/10/25 15:35:14;;;;;;;0.80;0.63;;;;;;;;;;5097510;28;20044;-93
2022/10/25 15:44:34;;;;;;;0.10;0.10;;;;;;;;;;5093044;28;20051;-93
2022/10/25 15:50:35;;;;;;;0.10;0.10;;;;;;;;;;5085744;28;20085;-91
2022/10/25 15:53:04;;;;;;;0.93;0.17;;;;;;;;;;5068736;28;20407;-88
2022/10/25 15:55:41;;;;;;;0.10;0.10;;;;;;;;;;5085297;28;20132;-87
2022/10/25 15:58:09;;;;;;;0.10;0.10;;;;;;;;;;5082256;28;20076;-92
2022/10/25 16:03:42;;;;;;;0.28;0.20;;;;;;;;;;5092090;28;20479;-94
2022/10/25 16:06:18;;;;;;;0.10;0.05;;;;;;;;;;5095267;28;20045;-95
2022/10/25 16:09:04;;;;;;;0.30;0.20;;;;;;;;;;5088749;28;20040;-90
2022/10/25 16:15:08;;;;;;;0.93;0.40;;;;;;;;;;5041561;28;20104;-92
2022/10/25 16:17:39;;;;;;;1.10;0.32;;;;;;;;;;5039029;28;20072;-86
2022/10/25 16:23:01;;;;;;;0.43;0.30;;;;;;;;;;5064254;23;20098;-92
2022/10/25 16:25:30;;;;;;;0.57;0.57;;;;;;;;;;5051205;28;20063;-91
2022/10/25 16:28:00;;;;;;;1.50;0.82;;;;;;;;;;5074165;28;20500;-93
2022/10/25 16:30:32;;;;;;;1.30;0.68;;;;;;;;;;5057247;28;20052;-93
2022/10/25 16:33:01;;;;;;;2.08;0.55;;;;;;;;;;5069010;28;20041;-93
2022/10/25 16:35:32;;;;;;;0.25;0.20;;;;;;;;;;5071393;28;20045;-96
2022/10/25 16:38:06;;;;;;;0.90;0.40;;;;;;;;;;5072844;28;20059;-96
2022/10/25 16:40:35;;;;;;;0.10;0.10;;;;;;;;;;5067828;28;20060;-93
2022/10/25 16:43:04;;;;;;;0.30;0.30;;;;;;;;;;5069462;28;20136;-92
2022/10/25 16:45:35;;;;;;;0.40;0.38;;;;;;;;;;5072285;28;20041;-94
2022/10/25 16:48:04;;;;;;;0.28;0.20;;;;;;;;;;5076040;28;20064;-96
2022/10/25 16:50:34;;;;;;;0.75;0.75;;;;;;;;;;5073862;28;20444;-94
2022/10/25 16:53:07;;;;;;;1.00;0.45;;;;;;;;;;5079459;28;20477;-96
2022/10/25 16:55:35;;;;;;;6.03;0.25;;;;;;;;;;5071367;28;20053;-93
2022/10/25 16:58:04;;;;;;;0.40;0.40;;;;;;;;;;5077496;28;20577;-96
2022/10/25 17:00:34;;;;;;;0.10;0.10;;;;;;;;;;5074827;28;20063;-93
2022/10/25 17:03:03;;;;;;;2.33;0.45;;;;;;;;;;5074638;28;20458;-95
2022/10/25 17:05:32;;;;;;;0.20;0.20;;;;;;;;;;5055136;23;20149;-91
2022/10/25 17:08:02;;;;;;;2.42;0.63;;;;;;;;;;5026232;28;20434;-88
2022/10/25 17:10:30;;;;;;;0.80;0.20;;;;;;;;;;5021269;28;20045;-91
2022/10/25 17:13:02;;;;;;;0.30;0.30;;;;;;;;;;5020166;28;20053;-91
2022/10/25 17:15:31;;;;;;;0.20;0.20;;;;;;;;;;5047909;28;20045;-92
2022/10/25 17:17:59;;;;;;;1.05;0.30;;;;;;;;;;5055666;28;20056;-89
2022/10/25 17:20:28;;;;;;;0.40;0.30;;;;;;;;;;5048502;28;20049;-90
2022/10/25 17:22:57;;;;;;;0.40;0.30;;;;;;;;;;5053088;28;20135;-89
2022/10/25 17:25:26;;;;;;;4.20;0.30;;;;;;;;;;5049275;28;20519;-90
2022/10/25 17:27:55;;;;;;;5.63;0.38;;;;;;;;;;5047972;28;20144;-88
2022/10/25 17:30:23;;;;;;;0.20;0.13;;;;;;;;;;5043718;28;20296;-89
2022/10/25 17:32:51;;;;;;;0.52;0.40;;;;;;;;;;5046962;28;20059;-87
2022/10/25 17:35:22;;;;;;;0.45;0.35;;;;;;;;;;5044719;28;20052;-87
2022/10/25 17:37:57;;;;;;;1.17;0.38;;;;;;;;;;5051104;28;20515;-87
2022/10/25 17:40:26;;;;;;;0.60;0.28;;;;;;;;;;5044309;28;20056;-87
2022/10/25 17:42:55;;;;;;;0.60;0.40;;;;;;;;;;5060236;28;20052;-87
2022/10/25 17:45:23;;;;;;;1.90;0.60;;;;;;;;;;5042785;28;20049;-88
2022/10/25 17:47:52;;;;;;;1.05;0.30;;;;;;;;;;5052662;28;20037;-87
2022/10/25 17:50:21;;;;;;;0.90;0.40;;;;;;;;;;5064674;28;20069;-87
2022/10/25 17:52:50;;;;;;;1.33;0.50;;;;;;;;;;5040736;28;20144;-88
2022/10/25 17:55:21;;;;;;;0.93;0.25;;;;;;;;;;5048545;28;20053;-88
2022/10/25 17:57:52;;;;;;;1.20;0.25;;;;;;;;;;5039351;28;20058;-87
2022/10/25 18:00:20;;;;;;;4.00;0.50;;;;;;;;;;5041578;28;20520;-89
2022/10/25 18:02:50;;;;;;;1.20;0.40;;;;;;;;;;5052885;28;20056;-89
2022/10/25 18:05:19;;;;;;;0.25;0.22;;;;;;;;;;5046900;28;20055;-88
2022/10/25 18:07:49;;;;;;;0.10;0.10;;;;;;;;;;5045293;28;20045;-88
2022/10/25 18:10:18;;;;;;;5.10;0.60;;;;;;;;;;5046826;28;20083;-88
2022/10/25 18:12:47;;;;;;;0.25;0.20;;;;;;;;;;5050544;28;20118;-90
2022/10/25 18:15:17;;;;;;;0.43;0.10;;;;;;;;;;5067367;28;20051;-89
2022/10/25 18:17:46;;;;;;;0.20;0.20;;;;;;;;;;5062692;28;20046;-89
2022/10/25 18:20:16;;;;;;;0.30;0.22;;;;;;;;;;5038649;28;20060;-89
2022/10/25 18:22:45;;;;;;;0.20;0.20;;;;;;;;;;5039825;28;20077;-89
2022/10/25 18:25:13;;;;;;;1.77;0.30;;;;;;;;;;5059057;28;20583;-89
2022/10/25 18:27:42;;;;;;;0.93;0.40;;;;;;;;;;5054338;28;20589;-90
2022/10/25 18:30:11;;;;;;;0.10;0.10;;;;;;;;;;5044061;28;20485;-88
2022/10/25 18:32:41;;;;;;;1.17;0.20;;;;;;;;;;5041187;28;20068;-88
2022/10/25 18:35:10;;;;;;;0.35;0.30;;;;;;;;;;5044612;28;20052;-89
2022/10/25 18:37:38;;;;;;;0.17;0.17;;;;;;;;;;5036218;28;20052;-88
2022/10/25 18:40:07;;;;;;;0.00;0.00;;;;;;;;;;5041351;28;20048;-89
2022/10/25 18:42:36;;;;;;;1.95;0.30;;;;;;;;;;5033783;28;20119;-88
2022/10/25 18:45:06;;;;;;;0.35;0.30;;;;;;;;;;5032472;28;20084;-89
2022/10/25 18:47:34;;;;;;;0.10;0.10;;;;;;;;;;5043140;28;20065;-89
2022/10/25 18:50:04;;;;;;;0.50;0.17;;;;;;;;;;5041872;28;20614;-89
2022/10/25 18:52:33;;;;;;;0.10;0.10;;;;;;;;;;5043389;28;20073;-88
2022/10/25 18:55:01;;;;;;;1.98;0.22;;;;;;;;;;5042135;28;20057;-88
2022/10/25 18:57:30;;;;;;;0.10;0.10;;;;;;;;;;5056235;28;20040;-88
2022/10/25 18:59:58;;;;;;;0.30;0.30;;;;;;;;;;5045286;28;20508;-91
2022/10/25 19:02:27;;;;;;;0.32;0.30;;;;;;;;;;5051026;28;20053;-88
2022/10/25 19:04:55;;;;;;;0.08;0.08;;;;;;;;;;5048252;28;20059;-88
2022/10/25 19:07:25;;;;;;;5.05;0.22;;;;;;;;;;5049266;28;20094;-88
2022/10/25 19:09:54;;;;;;;1.55;0.20;;;;;;;;;;5038420;28;20479;-88
2022/10/25 19:12:22;;;;;;;0.43;0.43;;;;;;;;;;5039439;28;20042;-89
2022/10/25 19:14:50;;;;;;;0.60;0.50;;;;;;;;;;5041348;28;20053;-89
2022/10/25 19:17:19;;;;;;;3.58;0.50;;;;;;;;;;5045566;28;20102;-89
2022/10/25 19:19:47;;;;;;;0.10;0.10;;;;;;;;;;5042238;28;20071;-88
2022/10/25 19:22:16;;;;;;;0.75;0.22;;;;;;;;;;5034015;28;20057;-88
2022/10/25 19:24:46;;;;;;;1.08;0.40;;;;;;;;;;5045491;28;20496;-89
2022/10/25 19:27:15;;;;;;;0.57;0.30;;;;;;;;;;5037529;28;20064;-88
2022/10/25 19:29:44;;;;;;;3.95;0.70;;;;;;;;;;5041397;28;20132;-89
2022/10/25 19:32:12;;;;;;;0.60;0.45;;;;;;;;;;5044392;28;20477;-90
2022/10/25 19:34:41;;;;;;;0.30;0.20;;;;;;;;;;5051873;28;20052;-90
2022/10/25 19:37:09;;;;;;;0.22;0.22;;;;;;;;;;5050813;28;20052;-88
2022/10/25 19:39:39;;;;;;;0.20;0.20;;;;;;;;;;5047206;28;20072;-88
2022/10/25 19:42:10;;;;;;;1.38;1.25;;;;;;;;;;5055451;28;20064;-89
2022/10/25 19:44:39;;;;;;;0.32;0.25;;;;;;;;;;5036300;28;20131;-89
2022/10/25 19:47:08;;;;;;;0.73;0.40;;;;;;;;;;5041551;28;20129;-91
2022/10/25 19:49:37;;;;;;;0.50;0.30;;;;;;;;;;5053553;28;20060;-89
2022/10/25 19:52:05;;;;;;;0.40;0.40;;;;;;;;;;5046746;28;20477;-89
2022/10/25 19:54:33;;;;;;;0.77;0.60;;;;;;;;;;5052846;28;20060;-89
2022/10/25 19:57:04;;;;;;;0.10;0.10;;;;;;;;;;5047771;28;20045;-89
2022/10/25 19:59:35;;;;;;;0.75;0.40;;;;;;;;;;5054460;28;20048;-89
2022/10/25 20:02:04;;;;;;;1.17;0.30;;;;;;;;;;5038244;28;20052;-91
2022/10/25 20:04:33;;;;;;;0.45;0.30;;;;;;;;;;5046462;28;20408;-89
2022/10/25 20:07:01;;;;;;;0.43;0.30;;;;;;;;;;5052443;28;20037;-90
2022/10/25 20:09:30;;;;;;;4.05;0.40;;;;;;;;;;5046002;28;20131;-90
2022/10/25 20:11:58;;;;;;;0.22;0.22;;;;;;;;;;5058041;28;20056;-89
2022/10/25 20:14:29;;;;;;;0.50;0.25;;;;;;;;;;5047456;28;20048;-87
2022/10/25 20:16:59;;;;;;;0.40;0.40;;;;;;;;;;5050754;28;20044;-89
2022/10/25 20:19:27;;;;;;;0.32;0.32;;;;;;;;;;5056873;28;20048;-89
2022/10/25 20:21:56;;;;;;;0.20;0.17;;;;;;;;;;5052849;28;20630;-90
2022/10/25 20:24:25;;;;;;;0.32;0.22;;;;;;;;;;5053244;28;20123;-89
2022/10/25 20:26:53;;;;;;;0.40;0.30;;;;;;;;;;5055327;28;20060;-89
2022/10/25 20:29:23;;;;;;;0.22;0.22;;;;;;;;;;5066232;28;20585;-89
2022/10/25 20:31:52;;;;;;;0.40;0.40;;;;;;;;;;5056353;28;20046;-88
2022/10/25 20:34:22;;;;;;;0.90;0.35;;;;;;;;;;5048933;28;20553;-89
2022/10/25 20:36:50;;;;;;;0.43;0.30;;;;;;;;;;5061001;28;20044;-89
2022/10/25 20:39:19;;;;;;;0.88;0.47;;;;;;;;;;5050251;28;20067;-88
2022/10/25 20:41:47;;;;;;;0.43;0.32;;;;;;;;;;5042527;28;20061;-90
2022/10/25 20:44:16;;;;;;;1.50;0.40;;;;;;;;;;5048741;28;20052;-89
2022/10/25 20:46:45;;;;;;;0.40;0.32;;;;;;;;;;5034566;28;20048;-89